Terminal Aerodrome Forecast
Issued by NWS

Home | Current Version | Previous Version | Text Only | Print | Product List | Glossary On
Versions: 1 2 3 4 5 6 7 8 9 10 11 12 13 14 15
000
FTUS45 KGJT 201120
TAFTEX
TAF
KTEX 201120Z 2012/2112 13003KT P6SM SCT035 BKN050
     FM201600 28005KT P6SM SCT050 BKN100
     FM201800 27009KT P6SM VCTS SCT060CB BKN100
     FM210200 12003KT P6SM FEW100=

USA.gov is the U.S. government's official web portal to all federal, state and local government web resources and services.